sensor_id;sensor_type;location;lat;lon;timestamp;temperature;humidity
16515;DHT22;8370;52.556;7.970;2023-03-19T00:01:17;8.30;99.90
16515;DHT22;8370;52.556;7.970;2023-03-19T00:03:42;8.20;99.90
16515;DHT22;8370;52.556;7.970;2023-03-19T00:06:07;8.20;99.90
16515;DHT22;8370;52.556;7.970;2023-03-19T00:08:33;8.20;99.90
16515;DHT22;8370;52.556;7.970;2023-03-19T00:11:03;8.10;99.90
16515;DHT22;8370;52.556;7.970;2023-03-19T00:13:29;8.10;99.90
16515;DHT22;8370;52.556;7.970;2023-03-19T00:15:55;8.10;99.90
16515;DHT22;8370;52.556;7.970;2023-03-19T00:18:20;8.00;99.90
16515;DHT22;8370;52.556;7.970;2023-03-19T00:20:46;8.00;99.90
16515;DHT22;8370;52.556;7.970;2023-03-19T00:23:12;7.90;99.90
16515;DHT22;8370;52.556;7.970;2023-03-19T00:25:38;7.90;99.90
16515;DHT22;8370;52.556;7.970;2023-03-19T00:28:03;7.90;99.90
16515;DHT22;8370;52.556;7.970;2023-03-19T00:30:29;7.90;99.90
16515;DHT22;8370;52.556;7.970;2023-03-19T00:32:54;7.90;99.90
16515;DHT22;8370;52.556;7.970;2023-03-19T00:35:20;7.90;99.90
16515;DHT22;8370;52.556;7.970;2023-03-19T00:37:46;7.80;99.90
16515;DHT22;8370;52.556;7.970;2023-03-19T00:40:11;7.80;99.90
16515;DHT22;8370;52.556;7.970;2023-03-19T00:42:37;7.80;99.90
16515;DHT22;8370;52.556;7.970;2023-03-19T00:45:03;7.80;99.90
16515;DHT22;8370;52.556;7.970;2023-03-19T00:47:28;7.80;99.90
16515;DHT22;8370;52.556;7.970;2023-03-19T00:49:54;7.80;99.90
16515;DHT22;8370;52.556;7.970;2023-03-19T00:52:20;7.80;99.90
16515;DHT22;8370;52.556;7.970;2023-03-19T00:54:45;7.80;99.90
16515;DHT22;8370;52.556;7.970;2023-03-19T00:57:11;7.80;99.90
16515;DHT22;8370;52.556;7.970;2023-03-19T00:59:36;7.80;99.90
16515;DHT22;8370;52.556;7.970;2023-03-19T01:02:02;7.80;99.90
16515;DHT22;8370;52.556;7.970;2023-03-19T01:04:28;7.80;99.90
16515;DHT22;8370;52.556;7.970;2023-03-19T01:06:53;7.80;99.90
16515;DHT22;8370;52.556;7.970;2023-03-19T01:09:19;7.80;99.90
16515;DHT22;8370;52.556;7.970;2023-03-19T01:11:44;7.80;99.90
16515;DHT22;8370;52.556;7.970;2023-03-19T01:14:10;7.80;99.90
16515;DHT22;8370;52.556;7.970;2023-03-19T01:16:36;7.80;99.90
16515;DHT22;8370;52.556;7.970;2023-03-19T01:19:02;7.90;99.90
16515;DHT22;8370;52.556;7.970;2023-03-19T01:21:28;8.00;99.90
16515;DHT22;8370;52.556;7.970;2023-03-19T01:23:56;8.00;99.90
16515;DHT22;8370;52.556;7.970;2023-03-19T01:26:22;8.00;99.90
16515;DHT22;8370;52.556;7.970;2023-03-19T01:28:47;8.00;99.90
16515;DHT22;8370;52.556;7.970;2023-03-19T01:31:13;8.00;99.90
16515;DHT22;8370;52.556;7.970;2023-03-19T01:33:38;8.00;99.90
16515;DHT22;8370;52.556;7.970;2023-03-19T01:36:05;8.00;99.90
16515;DHT22;8370;52.556;7.970;2023-03-19T01:38:30;8.10;99.90
16515;DHT22;8370;52.556;7.970;2023-03-19T01:40:56;8.10;99.90
16515;DHT22;8370;52.556;7.970;2023-03-19T01:43:23;8.20;99.90
16515;DHT22;8370;52.556;7.970;2023-03-19T01:45:54;8.20;99.90
16515;DHT22;8370;52.556;7.970;2023-03-19T01:51:04;8.30;99.90
16515;DHT22;8370;52.556;7.970;2023-03-19T01:53:32;8.30;99.90
16515;DHT22;8370;52.556;7.970;2023-03-19T01:56:03;8.20;99.90
16515;DHT22;8370;52.556;7.970;2023-03-19T01:58:31;8.30;99.90
16515;DHT22;8370;52.556;7.970;2023-03-19T02:00:57;8.30;99.90
16515;DHT22;8370;52.556;7.970;2023-03-19T02:03:24;8.20;99.90
16515;DHT22;8370;52.556;7.970;2023-03-19T02:05:51;8.20;99.90
16515;DHT22;8370;52.556;7.970;2023-03-19T02:08:19;8.20;99.90
16515;DHT22;8370;52.556;7.970;2023-03-19T02:10:46;8.20;99.90
16515;DHT22;8370;52.556;7.970;2023-03-19T02:13:12;8.20;99.90
16515;DHT22;8370;52.556;7.970;2023-03-19T02:15:38;8.20;99.90
16515;DHT22;8370;52.556;7.970;2023-03-19T02:18:04;8.30;99.90
16515;DHT22;8370;52.556;7.970;2023-03-19T02:20:40;8.30;99.90
16515;DHT22;8370;52.556;7.970;2023-03-19T02:23:37;8.30;99.90
16515;DHT22;8370;52.556;7.970;2023-03-19T02:26:09;8.30;99.90
16515;DHT22;8370;52.556;7.970;2023-03-19T02:28:38;8.40;99.90
16515;DHT22;8370;52.556;7.970;2023-03-19T02:31:06;8.40;99.90
16515;DHT22;8370;52.556;7.970;2023-03-19T02:33:31;8.40;99.90
16515;DHT22;8370;52.556;7.970;2023-03-19T02:35:57;8.50;99.90
16515;DHT22;8370;52.556;7.970;2023-03-19T02:38:24;8.50;99.90
16515;DHT22;8370;52.556;7.970;2023-03-19T02:41:00;8.50;99.90
16515;DHT22;8370;52.556;7.970;2023-03-19T02:43:26;8.50;99.90
16515;DHT22;8370;52.556;7.970;2023-03-19T02:45:52;8.50;99.90
16515;DHT22;8370;52.556;7.970;2023-03-19T02:48:18;8.50;99.90
16515;DHT22;8370;52.556;7.970;2023-03-19T02:50:44;8.50;99.90
16515;DHT22;8370;52.556;7.970;2023-03-19T02:53:09;8.60;99.90
16515;DHT22;8370;52.556;7.970;2023-03-19T02:55:35;8.60;99.90
16515;DHT22;8370;52.556;7.970;2023-03-19T02:58:01;8.60;99.90
16515;DHT22;8370;52.556;7.970;2023-03-19T03:00:26;8.60;99.90
16515;DHT22;8370;52.556;7.970;2023-03-19T03:02:53;8.60;99.90
16515;DHT22;8370;52.556;7.970;2023-03-19T03:05:18;8.60;99.90
16515;DHT22;8370;52.556;7.970;2023-03-19T03:07:45;8.60;99.90
16515;DHT22;8370;52.556;7.970;2023-03-19T03:10:11;8.60;99.90
16515;DHT22;8370;52.556;7.970;2023-03-19T03:12:36;8.60;99.90
16515;DHT22;8370;52.556;7.970;2023-03-19T03:15:04;8.70;99.90
16515;DHT22;8370;52.556;7.970;2023-03-19T03:17:30;8.70;99.90
16515;DHT22;8370;52.556;7.970;2023-03-19T03:19:55;8.70;99.90
16515;DHT22;8370;52.556;7.970;2023-03-19T03:22:21;8.70;99.90
16515;DHT22;8370;52.556;7.970;2023-03-19T03:24:47;8.70;99.90
16515;DHT22;8370;52.556;7.970;2023-03-19T03:27:12;8.80;99.90
16515;DHT22;8370;52.556;7.970;2023-03-19T03:29:39;8.80;99.90
16515;DHT22;8370;52.556;7.970;2023-03-19T03:32:05;8.80;99.90
16515;DHT22;8370;52.556;7.970;2023-03-19T03:34:31;8.80;99.90
16515;DHT22;8370;52.556;7.970;2023-03-19T03:36:56;8.80;99.90
16515;DHT22;8370;52.556;7.970;2023-03-19T03:39:22;8.80;99.90
16515;DHT22;8370;52.556;7.970;2023-03-19T03:41:48;8.80;99.90
16515;DHT22;8370;52.556;7.970;2023-03-19T03:44:13;8.80;99.90
16515;DHT22;8370;52.556;7.970;2023-03-19T03:46:39;8.70;99.90
16515;DHT22;8370;52.556;7.970;2023-03-19T03:49:05;8.70;99.90
16515;DHT22;8370;52.556;7.970;2023-03-19T03:51:30;8.70;99.90
16515;DHT22;8370;52.556;7.970;2023-03-19T03:53:57;8.70;99.90
16515;DHT22;8370;52.556;7.970;2023-03-19T03:56:22;8.60;99.90
16515;DHT22;8370;52.556;7.970;2023-03-19T03:58:48;8.60;99.90
16515;DHT22;8370;52.556;7.970;2023-03-19T04:01:17;8.60;99.90
16515;DHT22;8370;52.556;7.970;2023-03-19T04:03:43;8.50;99.90
16515;DHT22;8370;52.556;7.970;2023-03-19T04:06:16;8.60;99.90
16515;DHT22;8370;52.556;7.970;2023-03-19T04:08:41;8.60;99.90
16515;DHT22;8370;52.556;7.970;2023-03-19T04:11:08;8.60;99.90
16515;DHT22;8370;52.556;7.970;2023-03-19T04:13:33;8.60;99.90
16515;DHT22;8370;52.556;7.970;2023-03-19T04:16:06;8.60;99.90
16515;DHT22;8370;52.556;7.970;2023-03-19T04:18:32;8.60;99.90
16515;DHT22;8370;52.556;7.970;2023-03-19T04:20:58;8.60;99.90
16515;DHT22;8370;52.556;7.970;2023-03-19T04:23:24;8.70;99.90
16515;DHT22;8370;52.556;7.970;2023-03-19T04:25:50;8.60;99.90
16515;DHT22;8370;52.556;7.970;2023-03-19T04:28:16;8.60;99.90
16515;DHT22;8370;52.556;7.970;2023-03-19T04:30:41;8.60;99.90
16515;DHT22;8370;52.556;7.970;2023-03-19T04:33:08;8.60;99.90
16515;DHT22;8370;52.556;7.970;2023-03-19T04:35:33;8.60;99.90
16515;DHT22;8370;52.556;7.970;2023-03-19T04:37:59;8.60;99.90
16515;DHT22;8370;52.556;7.970;2023-03-19T04:40:25;8.60;99.90
16515;DHT22;8370;52.556;7.970;2023-03-19T04:42:50;8.60;99.90
16515;DHT22;8370;52.556;7.970;2023-03-19T04:45:16;8.60;99.90
16515;DHT22;8370;52.556;7.970;2023-03-19T04:47:41;8.60;99.90
16515;DHT22;8370;52.556;7.970;2023-03-19T04:50:07;8.60;99.90
16515;DHT22;8370;52.556;7.970;2023-03-19T04:52:33;8.60;99.90
16515;DHT22;8370;52.556;7.970;2023-03-19T04:54:59;8.60;99.90
16515;DHT22;8370;52.556;7.970;2023-03-19T04:57:24;8.60;99.90
16515;DHT22;8370;52.556;7.970;2023-03-19T04:59:50;8.60;99.90
16515;DHT22;8370;52.556;7.970;2023-03-19T05:02:15;8.60;99.90
16515;DHT22;8370;52.556;7.970;2023-03-19T05:04:41;8.60;99.90
16515;DHT22;8370;52.556;7.970;2023-03-19T05:07:07;8.60;99.90
16515;DHT22;8370;52.556;7.970;2023-03-19T05:09:32;8.60;99.90
16515;DHT22;8370;52.556;7.970;2023-03-19T05:11:58;8.60;99.90
16515;DHT22;8370;52.556;7.970;2023-03-19T05:14:24;8.60;99.90
16515;DHT22;8370;52.556;7.970;2023-03-19T05:16:49;8.60;99.90
16515;DHT22;8370;52.556;7.970;2023-03-19T05:19:16;8.60;99.90
16515;DHT22;8370;52.556;7.970;2023-03-19T05:21:41;8.70;99.90
16515;DHT22;8370;52.556;7.970;2023-03-19T05:24:07;8.70;99.90
16515;DHT22;8370;52.556;7.970;2023-03-19T05:26:33;8.70;99.90
16515;DHT22;8370;52.556;7.970;2023-03-19T05:28:58;8.70;99.90
16515;DHT22;8370;52.556;7.970;2023-03-19T05:31:24;8.70;99.90
16515;DHT22;8370;52.556;7.970;2023-03-19T05:33:49;8.70;99.90
16515;DHT22;8370;52.556;7.970;2023-03-19T05:36:15;8.80;99.90
16515;DHT22;8370;52.556;7.970;2023-03-19T05:38:41;8.70;99.90
16515;DHT22;8370;52.556;7.970;2023-03-19T05:41:07;8.80;99.90
16515;DHT22;8370;52.556;7.970;2023-03-19T05:43:32;8.80;99.90
16515;DHT22;8370;52.556;7.970;2023-03-19T05:45:58;8.80;99.90
16515;DHT22;8370;52.556;7.970;2023-03-19T05:48:24;8.80;99.90
16515;DHT22;8370;52.556;7.970;2023-03-19T05:50:50;8.80;99.90
16515;DHT22;8370;52.556;7.970;2023-03-19T05:53:17;8.90;99.90
16515;DHT22;8370;52.556;7.970;2023-03-19T05:55:43;8.90;99.90
16515;DHT22;8370;52.556;7.970;2023-03-19T05:58:08;8.90;99.90
16515;DHT22;8370;52.556;7.970;2023-03-19T06:00:34;8.90;99.90
16515;DHT22;8370;52.556;7.970;2023-03-19T06:03:00;8.90;99.90
16515;DHT22;8370;52.556;7.970;2023-03-19T06:05:26;8.90;99.90
16515;DHT22;8370;52.556;7.970;2023-03-19T06:07:51;8.90;99.90
16515;DHT22;8370;52.556;7.970;2023-03-19T06:10:17;8.90;99.90
16515;DHT22;8370;52.556;7.970;2023-03-19T06:12:42;9.00;99.90
16515;DHT22;8370;52.556;7.970;2023-03-19T06:15:08;9.00;99.90
16515;DHT22;8370;52.556;7.970;2023-03-19T06:17:34;9.00;99.90
16515;DHT22;8370;52.556;7.970;2023-03-19T06:20:00;9.00;99.90
16515;DHT22;8370;52.556;7.970;2023-03-19T06:22:26;9.00;99.90
16515;DHT22;8370;52.556;7.970;2023-03-19T06:24:51;9.10;99.90
16515;DHT22;8370;52.556;7.970;2023-03-19T06:27:17;9.00;99.90
16515;DHT22;8370;52.556;7.970;2023-03-19T06:29:42;9.00;99.90
16515;DHT22;8370;52.556;7.970;2023-03-19T06:32:08;9.10;99.90
16515;DHT22;8370;52.556;7.970;2023-03-19T06:34:34;9.10;99.90
16515;DHT22;8370;52.556;7.970;2023-03-19T06:37:00;9.10;99.90
16515;DHT22;8370;52.556;7.970;2023-03-19T06:39:26;9.20;99.90
16515;DHT22;8370;52.556;7.970;2023-03-19T06:41:52;9.20;99.90
16515;DHT22;8370;52.556;7.970;2023-03-19T06:44:17;9.30;99.90
16515;DHT22;8370;52.556;7.970;2023-03-19T06:46:43;9.30;99.90
16515;DHT22;8370;52.556;7.970;2023-03-19T06:49:09;9.40;99.90
16515;DHT22;8370;52.556;7.970;2023-03-19T06:51:34;9.40;99.90
16515;DHT22;8370;52.556;7.970;2023-03-19T06:54:00;9.50;99.90
16515;DHT22;8370;52.556;7.970;2023-03-19T06:56:26;9.50;99.90
16515;DHT22;8370;52.556;7.970;2023-03-19T06:58:51;9.50;99.90
16515;DHT22;8370;52.556;7.970;2023-03-19T07:01:17;9.60;99.90
16515;DHT22;8370;52.556;7.970;2023-03-19T07:03:43;9.60;99.90
16515;DHT22;8370;52.556;7.970;2023-03-19T07:06:08;9.70;99.90
16515;DHT22;8370;52.556;7.970;2023-03-19T07:08:34;9.70;99.90
16515;DHT22;8370;52.556;7.970;2023-03-19T07:11:06;9.80;99.90
16515;DHT22;8370;52.556;7.970;2023-03-19T07:13:32;9.90;99.90
16515;DHT22;8370;52.556;7.970;2023-03-19T07:15:59;9.90;99.90
16515;DHT22;8370;52.556;7.970;2023-03-19T07:18:24;10.00;99.90
16515;DHT22;8370;52.556;7.970;2023-03-19T07:20:50;10.10;99.90
16515;DHT22;8370;52.556;7.970;2023-03-19T07:23:17;10.10;99.90
16515;DHT22;8370;52.556;7.970;2023-03-19T07:25:43;10.20;99.90
16515;DHT22;8370;52.556;7.970;2023-03-19T07:28:08;10.20;99.90
16515;DHT22;8370;52.556;7.970;2023-03-19T07:30:34;10.20;99.90
16515;DHT22;8370;52.556;7.970;2023-03-19T07:33:00;10.30;99.90
16515;DHT22;8370;52.556;7.970;2023-03-19T07:35:25;10.40;99.90
16515;DHT22;8370;52.556;7.970;2023-03-19T07:37:51;10.50;99.90
16515;DHT22;8370;52.556;7.970;2023-03-19T07:40:16;10.60;99.90
16515;DHT22;8370;52.556;7.970;2023-03-19T07:42:42;10.70;99.90
16515;DHT22;8370;52.556;7.970;2023-03-19T07:45:08;10.80;99.90
16515;DHT22;8370;52.556;7.970;2023-03-19T07:47:33;11.00;99.90
16515;DHT22;8370;52.556;7.970;2023-03-19T07:49:59;11.20;99.90
16515;DHT22;8370;52.556;7.970;2023-03-19T07:52:25;11.20;99.90
16515;DHT22;8370;52.556;7.970;2023-03-19T07:54:51;11.40;99.90
16515;DHT22;8370;52.556;7.970;2023-03-19T07:57:17;11.40;99.90
16515;DHT22;8370;52.556;7.970;2023-03-19T07:59:43;11.50;99.90
16515;DHT22;8370;52.556;7.970;2023-03-19T08:02:12;11.60;99.90
16515;DHT22;8370;52.556;7.970;2023-03-19T08:04:39;11.60;99.90
16515;DHT22;8370;52.556;7.970;2023-03-19T08:07:04;11.70;99.90
16515;DHT22;8370;52.556;7.970;2023-03-19T08:09:31;11.80;99.90
16515;DHT22;8370;52.556;7.970;2023-03-19T08:11:56;11.90;99.90
16515;DHT22;8370;52.556;7.970;2023-03-19T08:14:22;12.00;99.90
16515;DHT22;8370;52.556;7.970;2023-03-19T08:16:48;12.10;99.90
16515;DHT22;8370;52.556;7.970;2023-03-19T08:19:14;12.20;99.90
16515;DHT22;8370;52.556;7.970;2023-03-19T08:21:39;12.30;99.90
16515;DHT22;8370;52.556;7.970;2023-03-19T08:24:05;12.30;99.90
16515;DHT22;8370;52.556;7.970;2023-03-19T08:26:31;12.40;99.90
16515;DHT22;8370;52.556;7.970;2023-03-19T08:28:57;12.40;99.90
16515;DHT22;8370;52.556;7.970;2023-03-19T08:31:23;12.50;99.90
16515;DHT22;8370;52.556;7.970;2023-03-19T08:33:49;12.50;99.90
16515;DHT22;8370;52.556;7.970;2023-03-19T08:36:14;12.60;99.90
16515;DHT22;8370;52.556;7.970;2023-03-19T08:38:40;12.80;99.90
16515;DHT22;8370;52.556;7.970;2023-03-19T08:41:07;12.90;99.90
16515;DHT22;8370;52.556;7.970;2023-03-19T08:43:34;13.10;99.90
16515;DHT22;8370;52.556;7.970;2023-03-19T08:46:01;13.20;99.90
16515;DHT22;8370;52.556;7.970;2023-03-19T08:48:27;13.20;99.90
16515;DHT22;8370;52.556;7.970;2023-03-19T08:50:55;13.30;99.90
16515;DHT22;8370;52.556;7.970;2023-03-19T08:53:21;13.40;99.90
16515;DHT22;8370;52.556;7.970;2023-03-19T08:55:55;13.40;99.90
16515;DHT22;8370;52.556;7.970;2023-03-19T08:58:21;13.40;99.90
16515;DHT22;8370;52.556;7.970;2023-03-19T09:00:47;13.50;99.90
16515;DHT22;8370;52.556;7.970;2023-03-19T09:03:13;13.40;99.90
16515;DHT22;8370;52.556;7.970;2023-03-19T09:05:38;13.50;99.90
16515;DHT22;8370;52.556;7.970;2023-03-19T09:08:04;13.60;99.90
16515;DHT22;8370;52.556;7.970;2023-03-19T09:10:30;13.70;99.90
16515;DHT22;8370;52.556;7.970;2023-03-19T09:12:56;13.80;99.90
16515;DHT22;8370;52.556;7.970;2023-03-19T09:15:21;13.70;99.90
16515;DHT22;8370;52.556;7.970;2023-03-19T09:17:47;13.70;99.90
16515;DHT22;8370;52.556;7.970;2023-03-19T09:20:12;13.60;99.90
16515;DHT22;8370;52.556;7.970;2023-03-19T09:22:38;13.50;99.90
16515;DHT22;8370;52.556;7.970;2023-03-19T09:25:04;13.40;99.90
16515;DHT22;8370;52.556;7.970;2023-03-19T09:27:29;13.30;99.90
16515;DHT22;8370;52.556;7.970;2023-03-19T09:29:55;13.10;99.90
16515;DHT22;8370;52.556;7.970;2023-03-19T09:32:20;12.80;99.90
16515;DHT22;8370;52.556;7.970;2023-03-19T09:34:46;12.70;99.90
16515;DHT22;8370;52.556;7.970;2023-03-19T09:37:12;12.70;99.90
16515;DHT22;8370;52.556;7.970;2023-03-19T09:39:37;12.70;99.90
16515;DHT22;8370;52.556;7.970;2023-03-19T09:42:14;12.60;99.90
16515;DHT22;8370;52.556;7.970;2023-03-19T09:44:44;12.70;99.90
16515;DHT22;8370;52.556;7.970;2023-03-19T09:47:31;12.90;99.90
16515;DHT22;8370;52.556;7.970;2023-03-19T09:50:04;12.90;99.90
16515;DHT22;8370;52.556;7.970;2023-03-19T09:52:37;12.80;99.90
16515;DHT22;8370;52.556;7.970;2023-03-19T09:57:54;12.90;99.90
16515;DHT22;8370;52.556;7.970;2023-03-19T10:00:29;12.90;99.90
16515;DHT22;8370;52.556;7.970;2023-03-19T10:11:37;12.50;99.90
16515;DHT22;8370;52.556;7.970;2023-03-19T10:17:23;12.70;99.90
16515;DHT22;8370;52.556;7.970;2023-03-19T10:20:20;12.80;99.90
16515;DHT22;8370;52.556;7.970;2023-03-19T10:22:52;12.90;99.90
16515;DHT22;8370;52.556;7.970;2023-03-19T10:25:26;12.90;99.90
16515;DHT22;8370;52.556;7.970;2023-03-19T10:27:59;12.90;99.90
16515;DHT22;8370;52.556;7.970;2023-03-19T10:30:26;12.80;99.90
16515;DHT22;8370;52.556;7.970;2023-03-19T10:33:06;12.70;99.90
16515;DHT22;8370;52.556;7.970;2023-03-19T10:35:42;12.70;99.90
16515;DHT22;8370;52.556;7.970;2023-03-19T10:38:23;12.60;99.90
16515;DHT22;8370;52.556;7.970;2023-03-19T10:41:19;12.50;99.90
16515;DHT22;8370;52.556;7.970;2023-03-19T10:43:53;12.60;99.90
16515;DHT22;8370;52.556;7.970;2023-03-19T10:46:20;12.80;99.90
16515;DHT22;8370;52.556;7.970;2023-03-19T10:48:46;12.90;99.90
16515;DHT22;8370;52.556;7.970;2023-03-19T10:51:18;13.10;99.90
16515;DHT22;8370;52.556;7.970;2023-03-19T10:53:45;13.20;99.90
16515;DHT22;8370;52.556;7.970;2023-03-19T10:56:17;13.40;99.90
16515;DHT22;8370;52.556;7.970;2023-03-19T10:58:59;13.40;99.90
16515;DHT22;8370;52.556;7.970;2023-03-19T11:01:33;13.60;99.90
16515;DHT22;8370;52.556;7.970;2023-03-19T11:04:01;13.70;99.90
16515;DHT22;8370;52.556;7.970;2023-03-19T11:06:36;13.70;99.90
16515;DHT22;8370;52.556;7.970;2023-03-19T11:09:13;13.90;99.90
16515;DHT22;8370;52.556;7.970;2023-03-19T11:11:45;13.90;99.90
16515;DHT22;8370;52.556;7.970;2023-03-19T11:14:28;13.90;99.90
16515;DHT22;8370;52.556;7.970;2023-03-19T11:17:27;13.80;99.90
16515;DHT22;8370;52.556;7.970;2023-03-19T11:19:55;14.00;99.90
16515;DHT22;8370;52.556;7.970;2023-03-19T11:22:33;14.10;99.90
16515;DHT22;8370;52.556;7.970;2023-03-19T11:28:13;14.70;99.90
16515;DHT22;8370;52.556;7.970;2023-03-19T11:36:04;16.20;99.90
16515;DHT22;8370;52.556;7.970;2023-03-19T11:41:09;15.60;99.90
16515;DHT22;8370;52.556;7.970;2023-03-19T11:43:49;15.20;99.90
16515;DHT22;8370;52.556;7.970;2023-03-19T11:46:43;14.70;99.90
16515;DHT22;8370;52.556;7.970;2023-03-19T11:49:27;14.50;99.90
16515;DHT22;8370;52.556;7.970;2023-03-19T11:55:00;14.20;99.90
16515;DHT22;8370;52.556;7.970;2023-03-19T11:57:35;14.50;99.90
16515;DHT22;8370;52.556;7.970;2023-03-19T12:00:10;15.80;99.90
16515;DHT22;8370;52.556;7.970;2023-03-19T12:05:45;16.50;99.90
16515;DHT22;8370;52.556;7.970;2023-03-19T12:08:28;16.10;99.90
16515;DHT22;8370;52.556;7.970;2023-03-19T12:13:50;16.00;99.90
16515;DHT22;8370;52.556;7.970;2023-03-19T12:21:42;18.80;99.90
16515;DHT22;8370;52.556;7.970;2023-03-19T12:27:58;20.00;99.90
16515;DHT22;8370;52.556;7.970;2023-03-19T12:35:37;17.00;99.90
16515;DHT22;8370;52.556;7.970;2023-03-19T12:38:23;16.10;99.90
16515;DHT22;8370;52.556;7.970;2023-03-19T12:40:59;15.70;99.90
16515;DHT22;8370;52.556;7.970;2023-03-19T12:46:06;15.00;99.90
16515;DHT22;8370;52.556;7.970;2023-03-19T12:48:53;14.90;99.90
16515;DHT22;8370;52.556;7.970;2023-03-19T12:51:23;14.80;99.90
16515;DHT22;8370;52.556;7.970;2023-03-19T12:56:51;14.90;99.90
16515;DHT22;8370;52.556;7.970;2023-03-19T12:59:34;14.90;99.90
16515;DHT22;8370;52.556;7.970;2023-03-19T13:02:16;15.10;99.90
16515;DHT22;8370;52.556;7.970;2023-03-19T13:05:08;15.50;99.90
16515;DHT22;8370;52.556;7.970;2023-03-19T13:08:05;15.90;99.90
16515;DHT22;8370;52.556;7.970;2023-03-19T13:10:35;16.80;99.90
16515;DHT22;8370;52.556;7.970;2023-03-19T13:15:57;18.60;99.90
16515;DHT22;8370;52.556;7.970;2023-03-19T13:18:39;19.00;99.90
16515;DHT22;8370;52.556;7.970;2023-03-19T13:23:49;19.40;99.90
16515;DHT22;8370;52.556;7.970;2023-03-19T13:26:15;18.80;99.90
16515;DHT22;8370;52.556;7.970;2023-03-19T13:29:07;17.90;99.90
16515;DHT22;8370;52.556;7.970;2023-03-19T13:31:34;17.60;99.90
16515;DHT22;8370;52.556;7.970;2023-03-19T13:34:18;17.70;99.90
16515;DHT22;8370;52.556;7.970;2023-03-19T13:36:47;17.90;99.90
16515;DHT22;8370;52.556;7.970;2023-03-19T13:39:24;18.40;99.90
16515;DHT22;8370;52.556;7.970;2023-03-19T13:41:57;18.20;99.90
16515;DHT22;8370;52.556;7.970;2023-03-19T13:50:20;18.60;99.90
16515;DHT22;8370;52.556;7.970;2023-03-19T13:52:49;18.60;99.90
16515;DHT22;8370;52.556;7.970;2023-03-19T13:58:20;18.60;99.90
16515;DHT22;8370;52.556;7.970;2023-03-19T14:03:56;18.60;99.90
16515;DHT22;8370;52.556;7.970;2023-03-19T14:06:39;18.60;99.90
16515;DHT22;8370;52.556;7.970;2023-03-19T14:09:41;18.50;99.90
16515;DHT22;8370;52.556;7.970;2023-03-19T14:12:37;18.20;99.90
16515;DHT22;8370;52.556;7.970;2023-03-19T14:17:36;18.20;99.90
16515;DHT22;8370;52.556;7.970;2023-03-19T14:20:26;18.30;99.90
16515;DHT22;8370;52.556;7.970;2023-03-19T14:28:26;18.60;99.90
16515;DHT22;8370;52.556;7.970;2023-03-19T14:30:56;18.50;99.90
16515;DHT22;8370;52.556;7.970;2023-03-19T14:33:26;18.30;99.90
16515;DHT22;8370;52.556;7.970;2023-03-19T14:35:55;18.40;99.90
16515;DHT22;8370;52.556;7.970;2023-03-19T14:38:37;18.50;99.90
16515;DHT22;8370;52.556;7.970;2023-03-19T14:41:04;18.20;99.90
16515;DHT22;8370;52.556;7.970;2023-03-19T14:44:06;18.10;99.90
16515;DHT22;8370;52.556;7.970;2023-03-19T14:49:41;18.10;99.90
16515;DHT22;8370;52.556;7.970;2023-03-19T14:52:19;18.40;99.90
16515;DHT22;8370;52.556;7.970;2023-03-19T14:55:01;18.30;99.90
16515;DHT22;8370;52.556;7.970;2023-03-19T14:57:31;18.30;99.90
16515;DHT22;8370;52.556;7.970;2023-03-19T14:59:58;18.20;99.90
16515;DHT22;8370;52.556;7.970;2023-03-19T15:02:36;18.00;99.90
16515;DHT22;8370;52.556;7.970;2023-03-19T15:05:07;17.70;99.90
16515;DHT22;8370;52.556;7.970;2023-03-19T15:07:37;17.60;99.90
16515;DHT22;8370;52.556;7.970;2023-03-19T15:10:20;17.80;99.90
16515;DHT22;8370;52.556;7.970;2023-03-19T15:13:23;18.00;99.90
16515;DHT22;8370;52.556;7.970;2023-03-19T15:16:04;18.00;99.90
16515;DHT22;8370;52.556;7.970;2023-03-19T15:18:32;17.80;99.90
16515;DHT22;8370;52.556;7.970;2023-03-19T15:21:01;17.60;99.90
16515;DHT22;8370;52.556;7.970;2023-03-19T15:23:27;17.30;99.90
16515;DHT22;8370;52.556;7.970;2023-03-19T15:25:58;17.00;99.90
16515;DHT22;8370;52.556;7.970;2023-03-19T15:28:27;16.80;99.90
16515;DHT22;8370;52.556;7.970;2023-03-19T15:31:11;16.60;99.90
16515;DHT22;8370;52.556;7.970;2023-03-19T15:33:38;16.40;99.90
16515;DHT22;8370;52.556;7.970;2023-03-19T15:36:29;16.40;99.90
16515;DHT22;8370;52.556;7.970;2023-03-19T15:39:03;16.50;99.90
16515;DHT22;8370;52.556;7.970;2023-03-19T15:41:31;16.50;99.90
16515;DHT22;8370;52.556;7.970;2023-03-19T15:43:58;16.50;99.90
16515;DHT22;8370;52.556;7.970;2023-03-19T15:46:28;16.60;99.90
16515;DHT22;8370;52.556;7.970;2023-03-19T15:49:19;16.60;99.90
16515;DHT22;8370;52.556;7.970;2023-03-19T15:51:48;16.40;99.90
16515;DHT22;8370;52.556;7.970;2023-03-19T15:54:17;16.40;99.90
16515;DHT22;8370;52.556;7.970;2023-03-19T15:56:44;16.20;99.90
16515;DHT22;8370;52.556;7.970;2023-03-19T15:59:10;16.20;99.90
16515;DHT22;8370;52.556;7.970;2023-03-19T16:01:36;16.00;99.90
16515;DHT22;8370;52.556;7.970;2023-03-19T16:04:07;16.00;99.90
16515;DHT22;8370;52.556;7.970;2023-03-19T16:06:38;16.00;99.90
16515;DHT22;8370;52.556;7.970;2023-03-19T16:11:42;16.10;99.90
16515;DHT22;8370;52.556;7.970;2023-03-19T16:16:46;16.40;99.90
16515;DHT22;8370;52.556;7.970;2023-03-19T16:19:31;16.50;99.90
16515;DHT22;8370;52.556;7.970;2023-03-19T16:21:58;16.70;99.90
16515;DHT22;8370;52.556;7.970;2023-03-19T16:24:35;16.80;99.90
16515;DHT22;8370;52.556;7.970;2023-03-19T16:27:06;16.90;99.90
16515;DHT22;8370;52.556;7.970;2023-03-19T16:29:38;16.70;99.90
16515;DHT22;8370;52.556;7.970;2023-03-19T16:34:53;16.40;99.90
16515;DHT22;8370;52.556;7.970;2023-03-19T16:37:42;16.20;99.90
16515;DHT22;8370;52.556;7.970;2023-03-19T16:42:54;15.90;99.90
16515;DHT22;8370;52.556;7.970;2023-03-19T16:45:31;15.80;99.90
16515;DHT22;8370;52.556;7.970;2023-03-19T16:47:58;15.70;99.90
16515;DHT22;8370;52.556;7.970;2023-03-19T16:50:38;15.60;99.90
16515;DHT22;8370;52.556;7.970;2023-03-19T16:53:20;15.50;99.90
16515;DHT22;8370;52.556;7.970;2023-03-19T16:55:46;15.40;99.90
16515;DHT22;8370;52.556;7.970;2023-03-19T16:58:15;15.40;99.90
16515;DHT22;8370;52.556;7.970;2023-03-19T17:00:42;15.70;99.90
16515;DHT22;8370;52.556;7.970;2023-03-19T17:03:12;15.70;99.90
16515;DHT22;8370;52.556;7.970;2023-03-19T17:05:38;15.90;99.90
16515;DHT22;8370;52.556;7.970;2023-03-19T17:08:04;15.90;99.90
16515;DHT22;8370;52.556;7.970;2023-03-19T17:10:30;15.80;99.90
16515;DHT22;8370;52.556;7.970;2023-03-19T17:12:57;15.70;99.90
16515;DHT22;8370;52.556;7.970;2023-03-19T17:15:26;15.50;99.90
16515;DHT22;8370;52.556;7.970;2023-03-19T17:17:53;15.40;99.90
16515;DHT22;8370;52.556;7.970;2023-03-19T17:20:21;15.20;99.90
16515;DHT22;8370;52.556;7.970;2023-03-19T17:22:48;15.10;99.90
16515;DHT22;8370;52.556;7.970;2023-03-19T17:25:15;15.00;99.90
16515;DHT22;8370;52.556;7.970;2023-03-19T17:27:43;14.80;99.90
16515;DHT22;8370;52.556;7.970;2023-03-19T17:30:09;14.70;99.90
16515;DHT22;8370;52.556;7.970;2023-03-19T17:32:36;14.50;99.90
16515;DHT22;8370;52.556;7.970;2023-03-19T17:35:03;14.40;99.90
16515;DHT22;8370;52.556;7.970;2023-03-19T17:37:30;14.30;99.90
16515;DHT22;8370;52.556;7.970;2023-03-19T17:39:56;14.20;99.90
16515;DHT22;8370;52.556;7.970;2023-03-19T17:42:23;14.20;99.90